createdAt,value
2022-09-28T00:01:15.960Z,91.65
2022-09-28T00:03:43.853Z,91.46
2022-09-28T00:06:14.340Z,92.75
2022-09-28T00:08:41.939Z,92.53
2022-09-28T00:11:13.700Z,93.26
2022-09-28T00:13:42.794Z,93.07
2022-09-28T00:16:14.083Z,93.57
2022-09-28T00:18:41.949Z,94.12
2022-09-28T00:21:12.308Z,95.07
2022-09-28T00:24:00.577Z,95.85
2022-09-28T00:26:31.007Z,96.43
2022-09-28T00:29:00.804Z,95.92
2022-09-28T00:31:31.653Z,95.95
2022-09-28T00:34:00.618Z,96.68
2022-09-28T00:36:29.195Z,97.22
2022-09-28T00:38:57.343Z,97.68
2022-09-28T00:41:26.273Z,97.28
2022-09-28T00:44:33.563Z,97.61
2022-09-28T00:47:05.075Z,97.19
2022-09-28T00:49:40.663Z,97.27
2022-09-28T00:52:11.901Z,96.97
2022-09-28T00:54:40.407Z,97.23
2022-09-28T00:57:08.052Z,97.40
2022-09-28T00:59:37.002Z,97.35
2022-09-28T01:02:04.861Z,97.47
2022-09-28T01:04:32.923Z,97.14
2022-09-28T01:07:01.466Z,97.12
2022-09-28T01:09:31.355Z,97.56
2022-09-28T01:11:58.979Z,97.71
2022-09-28T01:14:26.906Z,98.37
2022-09-28T01:17:05.661Z,98.41
2022-09-28T01:19:59.697Z,98.72
2022-09-28T01:22:53.006Z,98.65
2022-09-28T01:25:34.183Z,98.56
2022-09-28T01:28:06.922Z,99.13
2022-09-28T01:30:42.226Z,98.60
2022-09-28T01:33:14.318Z,98.93
2022-09-28T01:35:48.612Z,98.84
2022-09-28T01:38:20.405Z,98.99
2022-09-28T01:40:50.081Z,99.28
2022-09-28T01:43:23.823Z,98.91
2022-09-28T01:45:55.872Z,99.04
2022-09-28T01:48:30.346Z,99.55
2022-09-28T01:51:02.924Z,99.76
2022-09-28T01:53:37.868Z,100.00
2022-09-28T01:56:10.005Z,100.00
2022-09-28T01:58:45.009Z,100.00
2022-09-28T02:01:18.351Z,99.73
2022-09-28T02:03:52.056Z,99.52
2022-09-28T02:06:26.642Z,98.60
2022-09-28T02:08:58.125Z,97.89
2022-09-28T02:11:26.079Z,97.12
2022-09-28T02:14:00.388Z,97.87
2022-09-28T02:16:35.650Z,97.82
2022-09-28T02:19:04.900Z,97.03
2022-09-28T02:21:38.159Z,98.12
2022-09-28T02:24:21.633Z,98.81
2022-09-28T02:26:52.180Z,98.34
2022-09-28T02:29:21.175Z,97.63
2022-09-28T02:31:48.766Z,97.38
2022-09-28T02:34:16.418Z,97.50
2022-09-28T02:36:45.585Z,96.99
2022-09-28T02:39:15.188Z,96.94
2022-09-28T02:41:56.401Z,97.72
2022-09-28T02:44:50.488Z,98.47
2022-09-28T02:47:28.122Z,97.81
2022-09-28T02:50:04.686Z,97.77
2022-09-28T02:52:54.668Z,97.62
2022-09-28T02:55:37.452Z,97.75
2022-09-28T02:58:20.425Z,97.92
2022-09-28T03:00:58.468Z,97.71
2022-09-28T03:03:35.375Z,97.60
2022-09-28T03:06:08.698Z,98.14
2022-09-28T03:08:40.763Z,97.29
2022-09-28T03:11:13.807Z,96.71
2022-09-28T03:13:42.486Z,96.37
2022-09-28T03:16:14.235Z,96.49
2022-09-28T03:18:42.069Z,97.04
2022-09-28T03:21:12.341Z,96.97
2022-09-28T03:23:40.376Z,95.67
2022-09-28T03:26:08.651Z,94.86
2022-09-28T03:28:36.793Z,95.12
2022-09-28T03:31:04.467Z,95.36
2022-09-28T03:33:33.485Z,94.66
2022-09-28T03:36:01.285Z,95.09
2022-09-28T03:38:31.253Z,94.90
2022-09-28T03:41:00.418Z,94.76
2022-09-28T03:43:29.043Z,95.03
2022-09-28T03:45:58.317Z,95.17
2022-09-28T03:48:31.927Z,95.73
2022-09-28T03:51:02.742Z,95.57
2022-09-28T03:53:30.585Z,95.39
2022-09-28T03:56:03.781Z,95.94
2022-09-28T03:58:31.352Z,95.94
2022-09-28T04:01:03.490Z,96.04
2022-09-28T04:03:31.293Z,96.51
2022-09-28T04:05:59.361Z,96.27
2022-09-28T04:08:28.629Z,96.00
2022-09-28T04:10:57.486Z,96.06
2022-09-28T04:13:25.432Z,95.35
2022-09-28T04:15:54.576Z,95.13
2022-09-28T04:18:22.710Z,95.63
2022-09-28T04:20:59.409Z,96.16
2022-09-28T04:23:28.675Z,95.81
2022-09-28T04:25:56.319Z,94.74
2022-09-28T04:28:41.428Z,94.93
2022-09-28T04:31:11.164Z,95.33
2022-09-28T04:33:40.488Z,95.79
2022-09-28T04:36:09.362Z,95.60
2022-09-28T04:38:52.302Z,94.95
2022-09-28T04:41:22.131Z,95.03
2022-09-28T04:43:49.699Z,95.88
2022-09-28T04:46:18.785Z,95.14
2022-09-28T04:48:46.555Z,95.00
2022-09-28T04:51:14.501Z,95.02
2022-09-28T04:53:45.860Z,95.19
2022-09-28T04:56:16.509Z,95.49
2022-09-28T04:58:47.916Z,95.51
2022-09-28T05:01:23.416Z,95.30
2022-09-28T05:03:51.882Z,95.11
2022-09-28T05:06:19.545Z,95.86
2022-09-28T05:08:48.622Z,95.02
2022-09-28T05:11:16.383Z,95.40
2022-09-28T05:13:45.739Z,95.35
2022-09-28T05:16:15.795Z,95.65
2022-09-28T05:18:43.906Z,95.82
2022-09-28T05:21:12.729Z,95.77
2022-09-28T05:23:40.414Z,95.50
2022-09-28T05:26:10.789Z,95.87
2022-09-28T05:28:39.728Z,95.19
2022-09-28T05:31:07.709Z,93.86
2022-09-28T05:33:36.261Z,93.42
2022-09-28T05:36:05.133Z,92.38
2022-09-28T05:38:32.738Z,91.94
2022-09-28T05:41:04.431Z,91.75
2022-09-28T05:43:36.494Z,91.18
2022-09-28T05:46:04.193Z,90.70
2022-09-28T05:48:32.193Z,90.81
2022-09-28T05:50:59.953Z,91.58
2022-09-28T05:53:27.521Z,90.88
2022-09-28T05:55:59.175Z,90.98
2022-09-28T05:58:26.910Z,91.04
2022-09-28T06:00:57.214Z,90.13
2022-09-28T06:03:25.526Z,90.00
2022-09-28T06:05:53.710Z,89.47
2022-09-28T06:08:21.561Z,89.42
2022-09-28T06:10:49.193Z,88.28
2022-09-28T06:13:16.837Z,87.39
2022-09-28T06:15:44.767Z,87.07
2022-09-28T06:18:15.112Z,87.87
2022-09-28T06:20:43.237Z,87.80
2022-09-28T06:23:11.830Z,87.23
2022-09-28T06:25:39.459Z,86.82
2022-09-28T06:28:10.109Z,85.03
2022-09-28T06:30:40.407Z,84.40
2022-09-28T06:33:10.793Z,84.92
2022-09-28T06:35:40.805Z,85.04
2022-09-28T06:38:08.524Z,83.95
2022-09-28T06:40:36.956Z,82.07
2022-09-28T06:43:10.169Z,81.14
2022-09-28T06:45:39.015Z,79.99
2022-09-28T06:48:07.704Z,80.21
2022-09-28T06:50:38.439Z,80.29
2022-09-28T06:53:09.463Z,79.98
2022-09-28T06:55:40.123Z,80.97
2022-09-28T06:58:10.665Z,80.54
2022-09-28T07:00:39.394Z,81.59
2022-09-28T07:03:08.560Z,80.67
2022-09-28T07:05:37.667Z,79.23
2022-09-28T07:08:06.994Z,79.38
2022-09-28T07:10:34.825Z,79.43
2022-09-28T07:13:04.755Z,79.98
2022-09-28T07:15:32.997Z,79.71
2022-09-28T07:18:04.377Z,75.95
2022-09-28T07:20:34.692Z,73.43
2022-09-28T07:23:18.590Z,71.79
2022-09-28T07:25:48.731Z,67.46
2022-09-28T07:28:17.526Z,62.46
2022-09-28T07:30:45.402Z,60.22
2022-09-28T07:33:15.849Z,58.71
2022-09-28T07:35:50.675Z,59.88
2022-09-28T07:38:19.852Z,60.52
2022-09-28T07:41:05.506Z,63.01
2022-09-28T07:43:33.744Z,64.03
2022-09-28T07:46:01.463Z,63.15
2022-09-28T07:48:36.699Z,64.15
2022-09-28T07:51:04.638Z,64.03
2022-09-28T07:53:33.653Z,65.55
2022-09-28T07:56:07.281Z,66.59
2022-09-28T07:58:35.948Z,66.33
2022-09-28T08:01:06.452Z,66.29
2022-09-28T08:03:34.885Z,66.96
2022-09-28T08:06:05.845Z,67.94
2022-09-28T08:08:35.723Z,65.77
2022-09-28T08:11:04.009Z,62.85
2022-09-28T08:13:31.612Z,58.70
2022-09-28T08:16:02.217Z,57.22
2022-09-28T08:18:30.712Z,57.25
2022-09-28T08:21:16.203Z,57.69
2022-09-28T08:23:45.134Z,56.68
2022-09-28T08:26:15.615Z,56.85
2022-09-28T08:28:45.133Z,55.86
2022-09-28T08:31:12.884Z,53.15
2022-09-28T08:33:42.010Z,54.32
2022-09-28T08:36:11.269Z,55.51
2022-09-28T08:38:38.892Z,55.39
2022-09-28T08:41:17.846Z,56.05
2022-09-28T08:44:09.223Z,58.25
2022-09-28T08:46:39.806Z,60.21
2022-09-28T08:49:24.938Z,59.61
2022-09-28T08:52:00.018Z,59.97
2022-09-28T08:54:37.617Z,58.76
2022-09-28T08:57:13.552Z,60.60
2022-09-28T08:59:51.420Z,60.12
2022-09-28T09:02:25.384Z,61.13
2022-09-28T09:04:53.867Z,61.74
2022-09-28T09:07:57.143Z,63.33
2022-09-28T09:10:44.127Z,63.18
2022-09-28T09:13:36.801Z,61.55
2022-09-28T09:16:15.241Z,63.04
2022-09-28T09:18:49.434Z,63.33
2022-09-28T09:21:30.621Z,63.31
2022-09-28T09:24:08.201Z,65.60
2022-09-28T09:26:39.197Z,64.68
2022-09-28T09:29:22.169Z,64.29
2022-09-28T09:32:04.272Z,64.74
2022-09-28T09:34:44.719Z,63.55
2022-09-28T09:37:27.549Z,64.11
2022-09-28T09:40:17.884Z,61.91
2022-09-28T09:42:58.103Z,62.00
2022-09-28T09:45:36.876Z,62.04
2022-09-28T09:48:09.847Z,59.90
2022-09-28T09:50:46.738Z,59.31
2022-09-28T09:53:21.123Z,59.90
2022-09-28T09:55:54.797Z,60.71
2022-09-28T09:58:28.045Z,62.50
2022-09-28T10:01:03.228Z,61.48
2022-09-28T10:03:34.154Z,61.44
2022-09-28T10:06:06.753Z,62.43
2022-09-28T10:08:40.773Z,61.29
2022-09-28T10:11:13.118Z,61.43
2022-09-28T10:13:41.047Z,61.31
2022-09-28T10:16:10.809Z,61.77
2022-09-28T10:18:38.867Z,62.30
2022-09-28T10:21:06.857Z,60.80
2022-09-28T10:23:37.689Z,59.79
2022-09-28T10:26:13.421Z,60.38
2022-09-28T10:28:46.301Z,60.94
2022-09-28T10:31:39.457Z,58.73
2022-09-28T10:34:08.778Z,60.38
2022-09-28T10:36:49.413Z,59.12
2022-09-28T10:39:28.711Z,59.61
2022-09-28T10:41:56.654Z,60.00
2022-09-28T10:44:24.423Z,59.71
2022-09-28T10:47:00.379Z,58.31
2022-09-28T10:49:28.944Z,57.81
2022-09-28T10:51:57.237Z,57.54
2022-09-28T10:54:30.330Z,57.28
2022-09-28T10:56:59.771Z,56.63
2022-09-28T10:59:39.543Z,56.88
2022-09-28T11:02:21.885Z,56.32
2022-09-28T11:04:55.120Z,57.07
2022-09-28T11:07:26.791Z,57.21
2022-09-28T11:09:56.198Z,57.12
2022-09-28T11:12:26.746Z,57.54
2022-09-28T11:15:01.557Z,56.71
2022-09-28T11:17:32.795Z,57.68
2022-09-28T11:20:02.515Z,57.17
2022-09-28T11:22:41.715Z,57.74
2022-09-28T11:25:22.225Z,57.30
2022-09-28T11:28:01.740Z,56.82
2022-09-28T11:30:33.539Z,56.35
2022-09-28T11:33:09.184Z,56.01
2022-09-28T11:35:46.599Z,55.60
2022-09-28T11:38:40.480Z,54.89
2022-09-28T11:41:26.033Z,54.16
2022-09-28T11:44:23.927Z,55.42
2022-09-28T11:47:04.352Z,55.36
2022-09-28T11:49:39.960Z,56.75
2022-09-28T11:52:17.511Z,56.26
2022-09-28T11:54:51.720Z,55.22
2022-09-28T11:57:25.079Z,55.46
2022-09-28T11:59:59.262Z,54.23
2022-09-28T12:02:31.350Z,54.60
2022-09-28T12:05:14.917Z,53.35
2022-09-28T12:07:49.381Z,54.13
2022-09-28T12:10:27.771Z,53.93
2022-09-28T12:13:02.337Z,55.35
2022-09-28T12:16:16.826Z,54.53
2022-09-28T12:18:44.924Z,54.22
2022-09-28T12:21:35.712Z,54.41
2022-09-28T12:24:14.188Z,54.21
2022-09-28T12:26:48.292Z,52.71
2022-09-28T12:29:21.804Z,54.15
2022-09-28T12:31:59.388Z,54.21
2022-09-28T12:34:27.102Z,54.46
2022-09-28T12:37:09.214Z,54.48
2022-09-28T12:39:58.612Z,54.50
2022-09-28T12:42:42.324Z,56.56
2022-09-28T12:45:27.657Z,56.02
2022-09-28T12:48:14.553Z,56.83
2022-09-28T12:50:56.688Z,56.73
2022-09-28T12:53:47.459Z,55.55
2022-09-28T12:56:27.125Z,56.67
2022-09-28T12:59:09.199Z,56.73
2022-09-28T13:02:02.376Z,57.71
2022-09-28T13:04:57.978Z,58.08
2022-09-28T13:07:34.498Z,57.80
2022-09-28T13:10:18.462Z,57.65
2022-09-28T13:13:01.150Z,58.09
2022-09-28T13:15:38.713Z,57.22
2022-09-28T13:18:13.576Z,57.07
2022-09-28T13:20:51.270Z,57.23
2022-09-28T13:23:22.490Z,57.04
2022-09-28T13:25:56.103Z,56.62
2022-09-28T13:28:27.242Z,57.30
2022-09-28T13:33:34.982Z,57.46
2022-09-28T13:36:05.555Z,58.03
2022-09-28T13:38:55.125Z,57.67
2022-09-28T13:41:31.533Z,57.34
2022-09-28T13:44:27.456Z,57.09
2022-09-28T13:47:22.988Z,58.71
2022-09-28T13:50:04.635Z,58.92
2022-09-28T13:52:44.894Z,58.71
2022-09-28T13:55:29.861Z,59.50
2022-09-28T13:58:04.450Z,59.21
2022-09-28T14:00:38.913Z,57.97
2022-09-28T14:03:14.936Z,57.74
2022-09-28T14:05:47.925Z,57.53
2022-09-28T14:08:33.547Z,58.28
2022-09-28T14:11:26.395Z,57.84
2022-09-28T14:14:02.987Z,56.91
2022-09-28T14:16:32.566Z,56.79
2022-09-28T14:19:04.618Z,56.99
2022-09-28T14:21:58.036Z,57.08
2022-09-28T14:24:35.344Z,58.29
2022-09-28T14:27:21.595Z,58.60
2022-09-28T14:29:56.223Z,58.64
2022-09-28T14:32:25.592Z,58.79
2022-09-28T14:34:59.310Z,59.40
2022-09-28T14:37:47.411Z,58.35
2022-09-28T14:40:38.196Z,58.87
2022-09-28T14:43:28.768Z,58.84
2022-09-28T14:46:36.595Z,58.66
2022-09-28T14:49:06.506Z,58.79
2022-09-28T14:52:04.608Z,58.00
2022-09-28T14:54:54.376Z,58.82
2022-09-28T14:57:26.327Z,59.24
2022-09-28T14:59:56.680Z,59.62
2022-09-28T15:02:31.245Z,59.54
2022-09-28T15:05:10.314Z,60.18
2022-09-28T15:07:47.455Z,61.32
2022-09-28T15:10:27.969Z,61.10
2022-09-28T15:12:57.082Z,61.90
2022-09-28T15:15:29.443Z,61.77
2022-09-28T15:18:27.504Z,60.39
2022-09-28T15:20:55.803Z,59.92
2022-09-28T15:23:33.846Z,59.85
2022-09-28T15:26:02.430Z,59.51
2022-09-28T15:28:30.361Z,59.54
2022-09-28T15:31:02.669Z,60.27
2022-09-28T15:33:50.692Z,60.73
2022-09-28T15:36:22.326Z,60.41
2022-09-28T15:38:56.595Z,61.72
2022-09-28T15:41:25.315Z,60.44
2022-09-28T15:44:23.644Z,60.44
2022-09-28T15:46:51.990Z,60.68
2022-09-28T15:49:34.574Z,61.56
2022-09-28T15:52:08.287Z,62.25
2022-09-28T15:54:43.067Z,62.87
2022-09-28T15:57:30.280Z,63.89
2022-09-28T15:59:59.204Z,65.57
2022-09-28T16:02:27.729Z,65.31
2022-09-28T16:04:58.954Z,65.87
2022-09-28T16:07:33.197Z,65.63
2022-09-28T16:10:25.966Z,66.25
2022-09-28T16:12:56.739Z,66.61
2022-09-28T16:15:27.482Z,66.99
2022-09-28T16:17:57.390Z,66.86
2022-09-28T16:20:31.777Z,67.28
2022-09-28T16:23:05.821Z,67.02
2022-09-28T16:25:37.071Z,67.56
2022-09-28T16:28:25.217Z,67.43
2022-09-28T16:31:02.236Z,67.92
2022-09-28T16:33:32.433Z,67.64
2022-09-28T16:36:05.617Z,68.22
2022-09-28T16:38:33.197Z,69.09
2022-09-28T16:41:02.771Z,69.16
2022-09-28T16:43:34.975Z,70.00
2022-09-28T16:46:07.073Z,70.79
2022-09-28T16:48:39.425Z,70.57
2022-09-28T16:51:08.504Z,71.45
2022-09-28T16:53:54.532Z,70.29
2022-09-28T16:56:22.663Z,71.48
2022-09-28T16:58:50.736Z,71.66
2022-09-28T17:01:19.775Z,70.92
2022-09-28T17:03:49.927Z,72.24
2022-09-28T17:06:20.642Z,71.80
2022-09-28T17:08:48.367Z,70.85
2022-09-28T17:13:51.814Z,70.48
2022-09-28T17:16:32.643Z,70.72
2022-09-28T17:19:06.684Z,71.46
2022-09-28T17:21:35.583Z,71.80
2022-09-28T17:24:03.416Z,72.42
2022-09-28T17:26:33.513Z,72.41
2022-09-28T17:29:01.805Z,73.10
2022-09-28T17:31:30.028Z,74.38
2022-09-28T17:33:58.213Z,74.17
2022-09-28T17:36:27.388Z,73.25
2022-09-28T17:38:57.149Z,73.12
2022-09-28T17:41:24.780Z,73.37
2022-09-28T17:43:52.477Z,73.06
2022-09-28T17:46:28.730Z,73.17
2022-09-28T17:48:59.311Z,73.12
2022-09-28T17:51:27.765Z,73.56
2022-09-28T17:53:57.038Z,74.07
2022-09-28T17:56:27.544Z,73.55
2022-09-28T17:59:00.841Z,73.97
2022-09-28T18:01:33.590Z,74.14
2022-09-28T18:04:02.034Z,74.29
2022-09-28T18:06:29.951Z,74.23
2022-09-28T18:08:58.962Z,74.40
2022-09-28T18:11:27.161Z,74.55
2022-09-28T18:13:54.759Z,74.40
2022-09-28T18:16:22.950Z,75.14
2022-09-28T18:18:50.818Z,75.15
2022-09-28T18:21:18.545Z,75.14
2022-09-28T18:23:46.248Z,74.81
2022-09-28T18:26:16.716Z,75.06
2022-09-28T18:28:44.466Z,74.83
2022-09-28T18:31:14.904Z,74.70
2022-09-28T18:36:31.272Z,74.50
2022-09-28T18:39:00.894Z,75.26
2022-09-28T18:41:30.027Z,75.22
2022-09-28T18:44:00.650Z,75.37
2022-09-28T18:46:29.761Z,75.64
2022-09-28T18:48:57.814Z,76.15
2022-09-28T18:51:26.401Z,76.87
2022-09-28T18:53:54.112Z,77.62
2022-09-28T18:56:22.024Z,77.67
2022-09-28T18:58:52.583Z,76.99
2022-09-28T19:01:30.822Z,78.14
2022-09-28T19:04:00.253Z,78.91
2022-09-28T19:06:28.122Z,78.87
2022-09-28T19:08:56.854Z,79.67
2022-09-28T19:11:25.575Z,80.01
2022-09-28T19:13:55.902Z,80.61
2022-09-28T19:16:25.428Z,79.43
2022-09-28T19:18:53.934Z,78.08
2022-09-28T19:21:22.088Z,77.65
2022-09-28T19:23:50.180Z,77.40
2022-09-28T19:26:20.302Z,77.53
2022-09-28T19:28:48.578Z,77.87
2022-09-28T19:31:18.146Z,78.96
2022-09-28T19:33:46.407Z,79.79
2022-09-28T19:36:17.189Z,79.24
2022-09-28T19:38:45.508Z,79.67
2022-09-28T19:41:39.001Z,80.86
2022-09-28T19:44:12.997Z,80.29
2022-09-28T19:46:42.818Z,80.53
2022-09-28T19:49:12.673Z,80.44
2022-09-28T19:52:01.752Z,80.29
2022-09-28T19:54:36.136Z,80.09
2022-09-28T19:57:07.452Z,80.11
2022-09-28T19:59:36.409Z,81.64
2022-09-28T20:02:05.807Z,82.75
2022-09-28T20:04:33.371Z,82.64
2022-09-28T20:07:01.911Z,82.73
2022-09-28T20:09:29.619Z,82.92
2022-09-28T20:11:57.317Z,82.17
2022-09-28T20:14:26.502Z,82.36
2022-09-28T20:16:55.999Z,81.40
2022-09-28T20:19:25.110Z,81.20
2022-09-28T20:21:52.750Z,82.02
2022-09-28T20:24:20.399Z,82.46
2022-09-28T20:26:49.490Z,82.95
2022-09-28T20:29:17.462Z,83.48
2022-09-28T20:31:45.634Z,84.13
2022-09-28T20:34:15.033Z,83.84
2022-09-28T20:36:44.486Z,84.35
2022-09-28T20:39:12.747Z,84.15
2022-09-28T20:41:41.110Z,84.61
2022-09-28T20:44:09.840Z,84.58
2022-09-28T20:46:38.070Z,84.59
2022-09-28T20:49:07.075Z,84.51
2022-09-28T20:51:34.724Z,83.93
2022-09-28T20:54:03.801Z,83.10
2022-09-28T20:56:37.412Z,82.71
2022-09-28T20:59:05.854Z,82.80
2022-09-28T21:01:33.504Z,83.07
2022-09-28T21:04:02.974Z,83.21
2022-09-28T21:06:32.525Z,83.14
2022-09-28T21:09:00.507Z,83.38
2022-09-28T21:11:30.632Z,83.56
2022-09-28T21:14:01.608Z,83.43
2022-09-28T21:16:32.018Z,83.22
2022-09-28T21:19:00.035Z,83.54
2022-09-28T21:21:28.075Z,83.90
2022-09-28T21:23:56.482Z,83.65
2022-09-28T21:26:25.791Z,83.54
2022-09-28T21:28:55.737Z,83.09
2022-09-28T21:31:28.692Z,83.08
2022-09-28T21:33:57.256Z,82.30
2022-09-28T21:36:25.409Z,81.40
2022-09-28T21:38:53.464Z,80.61
2022-09-28T21:41:21.107Z,80.38
2022-09-28T21:43:48.665Z,80.31
2022-09-28T21:46:18.000Z,80.24
2022-09-28T21:48:45.767Z,80.46
2022-09-28T21:51:15.563Z,80.88
2022-09-28T21:53:43.617Z,80.75
2022-09-28T21:56:13.486Z,80.35
2022-09-28T21:58:41.588Z,81.00
2022-09-28T22:01:14.554Z,80.96
2022-09-28T22:03:45.119Z,80.75
2022-09-28T22:06:13.235Z,81.60
2022-09-28T22:08:41.437Z,81.14
2022-09-28T22:11:12.010Z,81.64
2022-09-28T22:13:42.221Z,81.33
2022-09-28T22:16:10.626Z,81.05
2022-09-28T22:18:38.470Z,81.49
2022-09-28T22:21:09.767Z,81.62
2022-09-28T22:23:38.577Z,82.02
2022-09-28T22:26:09.666Z,82.49
2022-09-28T22:28:38.010Z,82.89
2022-09-28T22:31:05.859Z,82.62
2022-09-28T22:33:34.061Z,82.82
2022-09-28T22:36:01.952Z,83.11
2022-09-28T22:38:32.927Z,83.13
2022-09-28T22:41:01.374Z,83.39
2022-09-28T22:43:29.079Z,84.13
2022-09-28T22:46:03.177Z,83.92
2022-09-28T22:48:30.855Z,84.08
2022-09-28T22:50:58.485Z,84.43
2022-09-28T22:53:26.101Z,84.47
2022-09-28T22:55:55.151Z,84.06
2022-09-28T22:58:23.455Z,83.89
2022-09-28T23:00:51.174Z,85.00
2022-09-28T23:03:19.094Z,86.52
2022-09-28T23:05:53.914Z,86.70
2022-09-28T23:08:22.347Z,87.29
2022-09-28T23:10:50.013Z,88.11
2022-09-28T23:13:19.760Z,88.30
2022-09-28T23:15:55.834Z,88.91
2022-09-28T23:18:23.913Z,89.01
2022-09-28T23:20:55.146Z,89.55
2022-09-28T23:23:25.956Z,89.30
2022-09-28T23:25:54.035Z,89.95
2022-09-28T23:28:24.795Z,89.51
2022-09-28T23:30:52.711Z,89.69
2022-09-28T23:33:22.449Z,89.75
2022-09-28T23:35:52.672Z,89.95
2022-09-28T23:38:20.249Z,90.71
2022-09-28T23:40:48.398Z,90.47
2022-09-28T23:43:16.097Z,90.11
2022-09-28T23:45:45.493Z,90.60
2022-09-28T23:48:14.767Z,91.02
2022-09-28T23:50:42.570Z,91.54
2022-09-28T23:53:10.733Z,91.69
2022-09-28T23:55:38.389Z,91.56
2022-09-28T23:58:06.110Z,92.30
